ETD603 OMAA-LGAV
Flight info
| Callsign | ETD603 |
|---|---|
| Flight time | N/A |
| Altitude | 40000 |
| Route | BOSEV1K BOSEV N563 ALPOB L768 VATIM L550 NOVPA J981 DATOK L550 GENIV L324 LAKTO DCT ANIDE DCT AKINA UL995 PIDAX/N0476F240 L995 VARIX VARIX1Q |
| Aircraft | A350/H-VGDW/C |
Departure
| Time | 2026-05-01 14:24 |
|---|---|
| Airport | Zayed International Airport (OMAA) |
Arrival
| Time | N/A |
|---|---|
| Airport | Athens Eleftherios Venizelos International Airport (LGAV) |
| Time | Latitude | Longitude | Altitude | Speed | Heading |
|---|---|---|---|---|---|
| 2026-05-01 13:36 | 24.44663 | 54.64268 | 98 ft | 0 kts | 72° |
| 2026-05-01 14:09 | 24.44658 | 54.64255 | 97 ft | 4 kts | 72° |
| 2026-05-01 14:09 | 24.44650 | 54.64227 | 98 ft | 4 kts | 72° |
| 2026-05-01 14:10 | 24.44642 | 54.64202 | 97 ft | 4 kts | 77° |
| 2026-05-01 14:10 | 24.44640 | 54.64179 | 96 ft | 4 kts | 108° |
| 2026-05-01 14:10 | 24.44647 | 54.64163 | 95 ft | 4 kts | 148° |
| 2026-05-01 14:10 | 24.44670 | 54.64152 | 97 ft | 4 kts | 163° |
| 2026-05-01 14:11 | 24.44688 | 54.64146 | 95 ft | 1 kts | 162° |
| 2026-05-01 14:15 | 24.44669 | 54.64154 | 97 ft | 8 kts | 160° |
| 2026-05-01 14:16 | 24.44577 | 54.64187 | 99 ft | 19 kts | 160° |
| 2026-05-01 14:16 | 24.44451 | 54.64242 | 99 ft | 18 kts | 156° |
| 2026-05-01 14:16 | 24.44371 | 54.64312 | 99 ft | 12 kts | 131° |
| 2026-05-01 14:16 | 24.44327 | 54.64371 | 98 ft | 8 kts | 126° |
| 2026-05-01 14:17 | 24.44286 | 54.64433 | 100 ft | 12 kts | 126° |
| 2026-05-01 14:17 | 24.44227 | 54.64516 | 100 ft | 15 kts | 129° |
| 2026-05-01 14:17 | 24.44152 | 54.64618 | 99 ft | 19 kts | 129° |
| 2026-05-01 14:17 | 24.44066 | 54.64741 | 100 ft | 21 kts | 127° |
| 2026-05-01 14:18 | 24.43971 | 54.64846 | 99 ft | 12 kts | 165° |
| 2026-05-01 14:18 | 24.43919 | 54.64833 | 99 ft | 10 kts | 198° |
| 2026-05-01 14:18 | 24.43866 | 54.64829 | 98 ft | 12 kts | 167° |
| 2026-05-01 14:19 | 24.43769 | 54.64931 | 99 ft | 18 kts | 127° |
| 2026-05-01 14:19 | 24.43681 | 54.65056 | 98 ft | 24 kts | 128° |
| 2026-05-01 14:19 | 24.43570 | 54.65212 | 100 ft | 28 kts | 128° |
| 2026-05-01 14:19 | 24.43486 | 54.65330 | 99 ft | 31 kts | 128° |
| 2026-05-01 14:20 | 24.43346 | 54.65526 | 100 ft | 34 kts | 128° |
| 2026-05-01 14:20 | 24.43026 | 54.65977 | 99 ft | 40 kts | 128° |
| 2026-05-01 14:20 | 24.42860 | 54.66210 | 99 ft | 36 kts | 128° |
| 2026-05-01 14:21 | 24.42717 | 54.66411 | 99 ft | 31 kts | 128° |
| 2026-05-01 14:21 | 24.42595 | 54.66583 | 99 ft | 26 kts | 128° |
| 2026-05-01 14:21 | 24.42493 | 54.66726 | 99 ft | 22 kts | 128° |
| 2026-05-01 14:22 | 24.42364 | 54.66845 | 98 ft | 4 kts | 190° |
| 2026-05-01 14:22 | 24.42341 | 54.66837 | 97 ft | 7 kts | 202° |
| 2026-05-01 14:22 | 24.42262 | 54.66782 | 96 ft | 20 kts | 221° |
| 2026-05-01 14:22 | 24.42213 | 54.66676 | 91 ft | 11 kts | 284° |
| 2026-05-01 14:23 | 24.42256 | 54.66603 | 91 ft | 23 kts | 304° |
| 2026-05-01 14:23 | 24.42488 | 54.66275 | 94 ft | 84 kts | 307° |
| 2026-05-01 14:23 | 24.42958 | 54.65601 | 94 ft | 136 kts | 308° |
| 2026-05-01 14:23 | 24.43646 | 54.64648 | 123 ft | 180 kts | 309° |
| 2026-05-01 14:24 | 24.44397 | 54.63632 | 977 ft | 159 kts | 311° |
| 2026-05-01 14:24 | 24.45072 | 54.62754 | 1810 ft | 142 kts | 314° |
| 2026-05-01 14:24 | 24.45570 | 54.61873 | 2371 ft | 133 kts | 296° |
| 2026-05-01 14:24 | 24.45974 | 54.61020 | 2769 ft | 123 kts | 303° |
| 2026-05-01 14:25 | 24.46394 | 54.60233 | 3104 ft | 114 kts | 306° |
| 2026-05-01 14:25 | 24.46878 | 54.59497 | 3318 ft | 136 kts | 316° |
| 2026-05-01 14:25 | 24.47611 | 54.58676 | 3590 ft | 160 kts | 316° |
| 2026-05-01 14:25 | 24.48411 | 54.57729 | 3817 ft | 178 kts | 314° |
| 2026-05-01 14:26 | 24.49259 | 54.56640 | 4060 ft | 197 kts | 311° |
| 2026-05-01 14:26 | 24.51133 | 54.54075 | 4525 ft | 239 kts | 310° |
| 2026-05-01 14:26 | 24.52192 | 54.52591 | 4890 ft | 256 kts | 309° |
| 2026-05-01 14:27 | 24.53305 | 54.51028 | 5449 ft | 262 kts | 309° |
| 2026-05-01 14:27 | 24.54432 | 54.49437 | 6104 ft | 265 kts | 308° |
| 2026-05-01 14:27 | 24.55568 | 54.47829 | 6764 ft | 268 kts | 307° |
| 2026-05-01 14:28 | 24.57878 | 54.44582 | 8151 ft | 272 kts | 307° |
| 2026-05-01 14:28 | 24.59043 | 54.42940 | 8893 ft | 273 kts | 306° |
| 2026-05-01 14:28 | 24.60217 | 54.41284 | 9645 ft | 275 kts | 306° |
| 2026-05-01 14:28 | 24.61373 | 54.39652 | 10307 ft | 280 kts | 306° |
| 2026-05-01 14:29 | 24.62620 | 54.37888 | 10651 ft | 297 kts | 306° |
| 2026-05-01 14:29 | 24.63923 | 54.36042 | 10952 ft | 315 kts | 306° |
| 2026-05-01 14:30 | 24.68234 | 54.29948 | 11860 ft | 358 kts | 306° |
| 2026-05-01 14:30 | 24.69782 | 54.27761 | 12278 ft | 366 kts | 306° |
| 2026-05-01 14:30 | 24.71357 | 54.25534 | 12794 ft | 371 kts | 306° |
| 2026-05-01 14:31 | 24.74561 | 54.21000 | 13872 ft | 378 kts | 306° |
| 2026-05-01 14:31 | 24.76181 | 54.18705 | 14383 ft | 381 kts | 306° |
| 2026-05-01 14:31 | 24.77816 | 54.16389 | 14889 ft | 384 kts | 305° |
| 2026-05-01 14:31 | 24.79457 | 54.14061 | 15391 ft | 387 kts | 305° |
| 2026-05-01 14:32 | 24.81119 | 54.11702 | 15903 ft | 390 kts | 305° |
| 2026-05-01 14:32 | 24.82787 | 54.09333 | 16407 ft | 392 kts | 304° |
| 2026-05-01 14:32 | 24.84365 | 54.06923 | 16909 ft | 394 kts | 301° |
| 2026-05-01 14:32 | 24.85864 | 54.04392 | 17425 ft | 396 kts | 299° |
| 2026-05-01 14:33 | 24.87313 | 54.01805 | 17910 ft | 398 kts | 298° |
| 2026-05-01 14:33 | 24.88750 | 53.99183 | 18378 ft | 400 kts | 297° |
| 2026-05-01 14:33 | 24.90191 | 53.96546 | 18822 ft | 403 kts | 297° |
| 2026-05-01 14:33 | 24.91645 | 53.93901 | 19283 ft | 405 kts | 298° |
| 2026-05-01 14:34 | 24.93116 | 53.91244 | 19759 ft | 407 kts | 298° |
| 2026-05-01 14:34 | 24.94599 | 53.88580 | 20234 ft | 409 kts | 298° |
| 2026-05-01 14:34 | 24.96093 | 53.85904 | 20718 ft | 411 kts | 298° |
| 2026-05-01 14:34 | 24.97595 | 53.83217 | 21205 ft | 413 kts | 298° |
| 2026-05-01 14:35 | 24.99108 | 53.80511 | 21709 ft | 416 kts | 298° |
| 2026-05-01 14:35 | 25.00644 | 53.77797 | 22186 ft | 419 kts | 300° |
| 2026-05-01 14:35 | 25.02436 | 53.75226 | 22676 ft | 426 kts | 308° |
| 2026-05-01 14:35 | 25.04464 | 53.72828 | 23170 ft | 430 kts | 309° |
| 2026-05-01 14:36 | 25.06583 | 53.70475 | 23607 ft | 434 kts | 311° |
| 2026-05-01 14:36 | 25.08723 | 53.68176 | 23993 ft | 436 kts | 311° |
| 2026-05-01 14:36 | 25.10916 | 53.65853 | 24406 ft | 437 kts | 311° |
| 2026-05-01 14:36 | 25.13114 | 53.63527 | 24819 ft | 439 kts | 311° |
| 2026-05-01 14:37 | 25.15320 | 53.61184 | 25229 ft | 441 kts | 311° |
| 2026-05-01 14:37 | 25.17530 | 53.58825 | 25652 ft | 442 kts | 311° |
| 2026-05-01 14:37 | 25.19742 | 53.56454 | 26081 ft | 444 kts | 311° |
| 2026-05-01 14:37 | 25.21964 | 53.54066 | 26506 ft | 446 kts | 311° |
| 2026-05-01 14:38 | 25.24198 | 53.51661 | 26956 ft | 449 kts | 311° |
| 2026-05-01 14:38 | 25.26254 | 53.49445 | 27369 ft | 451 kts | 310° |
| 2026-05-01 14:38 | 25.28503 | 53.47022 | 27820 ft | 453 kts | 311° |
| 2026-05-01 14:38 | 25.30738 | 53.44619 | 28266 ft | 455 kts | 310° |
| 2026-05-01 14:39 | 25.32986 | 53.42202 | 28207 ft | 444 kts | 310° |
| 2026-05-01 14:39 | 25.35190 | 53.39828 | 27543 ft | 444 kts | 310° |
| 2026-05-01 14:39 | 25.37430 | 53.37404 | 27052 ft | 455 kts | 311° |
| 2026-05-01 14:39 | 25.39712 | 53.34931 | 26872 ft | 461 kts | 311° |
| 2026-05-01 14:40 | 25.42022 | 53.32437 | 26849 ft | 462 kts | 311° |
| 2026-05-01 14:40 | 25.44326 | 53.29951 | 26848 ft | 462 kts | 311° |
| 2026-05-01 14:40 | 25.46623 | 53.27471 | 26849 ft | 462 kts | 311° |
| 2026-05-01 14:40 | 25.48890 | 53.25021 | 26850 ft | 461 kts | 311° |
| 2026-05-01 14:41 | 25.51186 | 53.22542 | 26850 ft | 461 kts | 311° |
| 2026-05-01 14:41 | 25.53482 | 53.20058 | 26862 ft | 462 kts | 311° |
| 2026-05-01 14:41 | 25.55781 | 53.17561 | 27187 ft | 460 kts | 311° |
| 2026-05-01 14:41 | 25.58056 | 53.15089 | 27613 ft | 457 kts | 310° |
| 2026-05-01 14:42 | 25.60322 | 53.12625 | 27890 ft | 457 kts | 310° |
| 2026-05-01 14:42 | 25.62595 | 53.10151 | 28120 ft | 458 kts | 310° |
| 2026-05-01 14:42 | 25.64900 | 53.07639 | 28343 ft | 459 kts | 310° |
| 2026-05-01 14:42 | 25.67153 | 53.05185 | 28569 ft | 461 kts | 310° |
| 2026-05-01 14:43 | 25.69360 | 53.02623 | 28780 ft | 458 kts | 305° |
| 2026-05-01 14:43 | 25.71214 | 52.99771 | 29000 ft | 454 kts | 296° |
| 2026-05-01 14:43 | 25.72790 | 52.96747 | 29214 ft | 453 kts | 295° |
| 2026-05-01 14:43 | 25.74296 | 52.93666 | 29436 ft | 454 kts | 294° |
| 2026-05-01 14:44 | 25.75762 | 52.90564 | 29662 ft | 455 kts | 294° |
| 2026-05-01 14:44 | 25.78670 | 52.84319 | 30063 ft | 457 kts | 293° |
| 2026-05-01 14:44 | 25.80082 | 52.81292 | 30255 ft | 458 kts | 293° |
| 2026-05-01 14:45 | 25.81553 | 52.78150 | 30438 ft | 459 kts | 293° |
| 2026-05-01 14:45 | 25.84498 | 52.71888 | 31022 ft | 456 kts | 293° |
| 2026-05-01 14:45 | 25.85967 | 52.68769 | 31338 ft | 454 kts | 293° |
| 2026-05-01 14:46 | 25.87429 | 52.65662 | 31636 ft | 453 kts | 292° |
| 2026-05-01 14:46 | 25.90336 | 52.59477 | 32243 ft | 450 kts | 292° |
| 2026-05-01 14:46 | 25.91729 | 52.56429 | 32539 ft | 448 kts | 291° |
| 2026-05-01 14:47 | 25.93098 | 52.53324 | 32854 ft | 446 kts | 290° |
| 2026-05-01 14:47 | 25.94445 | 52.50223 | 33155 ft | 444 kts | 290° |
| 2026-05-01 14:47 | 25.95785 | 52.47133 | 33463 ft | 443 kts | 290° |
| 2026-05-01 14:48 | 25.98465 | 52.40988 | 34043 ft | 441 kts | 290° |
| 2026-05-01 14:48 | 25.99814 | 52.37919 | 34243 ft | 441 kts | 290° |
| 2026-05-01 14:48 | 26.02543 | 52.31801 | 34670 ft | 442 kts | 290° |
| 2026-05-01 14:49 | 26.05268 | 52.25711 | 35129 ft | 442 kts | 290° |
| 2026-05-01 14:49 | 26.08002 | 52.19586 | 35575 ft | 442 kts | 290° |
| 2026-05-01 14:50 | 26.09824 | 52.15492 | 35884 ft | 442 kts | 290° |
| 2026-05-01 14:50 | 26.13452 | 52.07325 | 36476 ft | 442 kts | 290° |
| 2026-05-01 14:51 | 26.14812 | 52.04259 | 36700 ft | 442 kts | 290° |
| 2026-05-01 14:51 | 26.17535 | 51.98121 | 37137 ft | 442 kts | 290° |
| 2026-05-01 14:52 | 26.20297 | 51.92001 | 37574 ft | 442 kts | 290° |
| 2026-05-01 14:52 | 26.21671 | 51.88928 | 37788 ft | 442 kts | 289° |
| 2026-05-01 14:52 | 26.24372 | 51.82785 | 38212 ft | 441 kts | 289° |
| 2026-05-01 14:53 | 26.25716 | 51.79716 | 38400 ft | 441 kts | 289° |
| 2026-05-01 14:53 | 26.27056 | 51.76688 | 38587 ft | 441 kts | 289° |
| 2026-05-01 14:53 | 26.28420 | 51.73622 | 38737 ft | 441 kts | 289° |
| 2026-05-01 14:53 | 26.29787 | 51.70559 | 38897 ft | 441 kts | 289° |
| 2026-05-01 14:54 | 26.31153 | 51.67496 | 39040 ft | 441 kts | 289° |
| 2026-05-01 14:54 | 26.32521 | 51.64430 | 39191 ft | 441 kts | 289° |
| 2026-05-01 14:54 | 26.33891 | 51.61358 | 39332 ft | 441 kts | 289° |
| 2026-05-01 14:54 | 26.35217 | 51.58387 | 39471 ft | 441 kts | 289° |
| 2026-05-01 14:55 | 26.36571 | 51.55348 | 39616 ft | 441 kts | 289° |
| 2026-05-01 14:55 | 26.37799 | 51.52359 | 39724 ft | 437 kts | 284° |
| 2026-05-01 14:55 | 26.38881 | 51.49199 | 39843 ft | 436 kts | 284° |
| 2026-05-01 14:56 | 26.40949 | 51.42836 | 39865 ft | 435 kts | 283° |
| 2026-05-01 14:56 | 26.42955 | 51.36514 | 39867 ft | 434 kts | 283° |
| 2026-05-01 14:57 | 26.44983 | 51.30159 | 39871 ft | 434 kts | 283° |
| 2026-05-01 14:57 | 26.48006 | 51.20678 | 39864 ft | 434 kts | 283° |
| 2026-05-01 14:58 | 26.50028 | 51.14320 | 39873 ft | 434 kts | 283° |
| 2026-05-01 14:58 | 26.52039 | 51.07989 | 39869 ft | 434 kts | 283° |
| 2026-05-01 14:59 | 26.54011 | 51.01776 | 39865 ft | 434 kts | 283° |
| 2026-05-01 14:59 | 26.56011 | 50.95466 | 39869 ft | 434 kts | 283° |
| 2026-05-01 15:00 | 26.58980 | 50.86037 | 39866 ft | 433 kts | 283° |
| 2026-05-01 15:01 | 26.60949 | 50.79662 | 39867 ft | 433 kts | 282° |
| 2026-05-01 15:01 | 26.62899 | 50.73338 | 39869 ft | 433 kts | 282° |
| 2026-05-01 15:02 | 26.64862 | 50.66970 | 39869 ft | 433 kts | 282° |
| 2026-05-01 15:02 | 26.66763 | 50.60590 | 39871 ft | 432 kts | 282° |
| 2026-05-01 15:03 | 26.68634 | 50.54212 | 39875 ft | 432 kts | 282° |
| 2026-05-01 15:03 | 26.70509 | 50.47839 | 39874 ft | 431 kts | 282° |
| 2026-05-01 15:04 | 26.72235 | 50.41422 | 39876 ft | 429 kts | 279° |
| 2026-05-01 15:04 | 26.73832 | 50.34994 | 39877 ft | 428 kts | 279° |
| 2026-05-01 15:05 | 26.75430 | 50.28625 | 39878 ft | 428 kts | 279° |
| 2026-05-01 15:05 | 26.77161 | 50.22240 | 39878 ft | 430 kts | 282° |
| 2026-05-01 15:06 | 26.79102 | 50.15900 | 39877 ft | 430 kts | 282° |
| 2026-05-01 15:06 | 26.80720 | 50.10631 | 39880 ft | 430 kts | 282° |
| 2026-05-01 15:07 | 26.82631 | 50.04284 | 39880 ft | 429 kts | 282° |
| 2026-05-01 15:07 | 26.84515 | 49.97948 | 39880 ft | 429 kts | 282° |
| 2026-05-01 15:08 | 26.86389 | 49.91616 | 39880 ft | 428 kts | 282° |
| 2026-05-01 15:08 | 26.88260 | 49.85283 | 39878 ft | 428 kts | 281° |
| 2026-05-01 15:09 | 26.90117 | 49.78993 | 39878 ft | 428 kts | 281° |
| 2026-05-01 15:09 | 26.91984 | 49.72659 | 39874 ft | 427 kts | 281° |
| 2026-05-01 15:10 | 26.93843 | 49.66340 | 39869 ft | 427 kts | 281° |
| 2026-05-01 15:10 | 26.96620 | 49.56882 | 39872 ft | 427 kts | 281° |
| 2026-05-01 15:11 | 26.99397 | 49.47398 | 39872 ft | 426 kts | 281° |
| 2026-05-01 15:12 | 27.01403 | 49.41142 | 39875 ft | 432 kts | 288° |
| 2026-05-01 15:12 | 27.05713 | 49.32163 | 39869 ft | 437 kts | 291° |
| 2026-05-01 15:14 | 27.13209 | 49.17352 | 39882 ft | 437 kts | 291° |
| 2026-05-01 15:14 | 27.17675 | 49.08445 | 39887 ft | 437 kts | 291° |
| 2026-05-01 15:15 | 27.23628 | 48.96544 | 39889 ft | 437 kts | 291° |
| 2026-05-01 15:16 | 27.29541 | 48.84667 | 39891 ft | 437 kts | 291° |
| 2026-05-01 15:18 | 27.36952 | 48.69744 | 39899 ft | 437 kts | 291° |
| 2026-05-01 15:19 | 27.42872 | 48.57790 | 39903 ft | 437 kts | 291° |
| 2026-05-01 15:19 | 27.47295 | 48.48835 | 39905 ft | 437 kts | 291° |
| 2026-05-01 15:20 | 27.51730 | 48.39837 | 39910 ft | 437 kts | 291° |
| 2026-05-01 15:21 | 27.54679 | 48.33845 | 39910 ft | 437 kts | 291° |
| 2026-05-01 15:21 | 27.57625 | 48.27849 | 39900 ft | 437 kts | 291° |
| 2026-05-01 15:22 | 27.62038 | 48.18878 | 39910 ft | 437 kts | 291° |
| 2026-05-01 15:22 | 27.64980 | 48.12880 | 39910 ft | 437 kts | 290° |
| 2026-05-01 15:23 | 27.67921 | 48.06878 | 39918 ft | 437 kts | 290° |
| 2026-05-01 15:23 | 27.70857 | 48.00880 | 39917 ft | 436 kts | 290° |
| 2026-05-01 15:24 | 27.73783 | 47.94877 | 39913 ft | 436 kts | 290° |
| 2026-05-01 15:24 | 27.76698 | 47.88882 | 39913 ft | 435 kts | 290° |
| 2026-05-01 15:25 | 27.79536 | 47.83041 | 39916 ft | 435 kts | 290° |
| 2026-05-01 15:25 | 27.82448 | 47.77042 | 39910 ft | 435 kts | 290° |
| 2026-05-01 15:26 | 27.84966 | 47.70909 | 39916 ft | 426 kts | 283° |
| 2026-05-01 15:26 | 27.86976 | 47.64668 | 39913 ft | 425 kts | 282° |
| 2026-05-01 15:27 | 27.88922 | 47.58361 | 39916 ft | 425 kts | 282° |
| 2026-05-01 15:28 | 27.91835 | 47.48891 | 39915 ft | 425 kts | 282° |
| 2026-05-01 15:28 | 27.93786 | 47.42571 | 39915 ft | 425 kts | 282° |
| 2026-05-01 15:29 | 27.96709 | 47.33093 | 39913 ft | 425 kts | 282° |
| 2026-05-01 15:30 | 28.00581 | 47.20494 | 39912 ft | 425 kts | 282° |
| 2026-05-01 15:31 | 28.06389 | 47.01511 | 39915 ft | 425 kts | 282° |
| 2026-05-01 15:32 | 28.10237 | 46.88871 | 39916 ft | 424 kts | 282° |
| 2026-05-01 15:34 | 28.16467 | 46.70105 | 39910 ft | 425 kts | 283° |